Time;durP1;ratioP1;P1;durP2;ratioP2;P2;SDS_P1;SDS_P2;PMS_P1;PMS_P2;Temp;Humidity;BMP_temperature;BMP_pressure;BME280_temperature;BME280_humidity;BME280_pressure;Samples;Min_cycle;Max_cycle;Signal;HPM_P1;HPM_P2
2021/10/04 00:00:41;;;;;;;12.63;6.75;;;;;;;;;;5069473;28;20138;-50
2021/10/04 00:03:07;;;;;;;11.55;6.30;;;;;;;;;;5067101;28;20028;-52
2021/10/04 00:05:33;;;;;;;15.25;7.43;;;;;;;;;;5074681;28;20377;-50
2021/10/04 00:07:59;;;;;;;13.93;6.80;;;;;;;;;;5073893;28;20027;-52
2021/10/04 00:10:25;;;;;;;12.20;6.88;;;;;;;;;;5071293;28;20029;-53
2021/10/04 00:12:51;;;;;;;12.82;6.70;;;;;;;;;;5073584;28;20108;-56
2021/10/04 00:15:19;;;;;;;12.27;7.18;;;;;;;;;;5068891;28;20025;-56
2021/10/04 00:17:45;;;;;;;14.10;7.05;;;;;;;;;;5073479;28;20021;-54
2021/10/04 00:20:12;;;;;;;11.43;6.50;;;;;;;;;;5066474;28;20119;-50
2021/10/04 00:22:38;;;;;;;12.98;6.97;;;;;;;;;;5073806;28;20650;-52
2021/10/04 00:25:05;;;;;;;14.05;7.22;;;;;;;;;;5072311;28;20128;-54
2021/10/04 00:27:31;;;;;;;13.93;6.60;;;;;;;;;;5069885;28;20040;-54
2021/10/04 00:29:57;;;;;;;14.20;7.30;;;;;;;;;;5070863;28;20462;-51
2021/10/04 00:32:24;;;;;;;14.07;6.75;;;;;;;;;;5072103;28;20112;-52
2021/10/04 00:34:50;;;;;;;13.98;7.10;;;;;;;;;;5073125;28;20165;-50
2021/10/04 00:37:16;;;;;;;13.02;7.05;;;;;;;;;;5072651;28;20107;-51
2021/10/04 00:39:42;;;;;;;11.02;6.93;;;;;;;;;;5072022;28;20122;-50
2021/10/04 00:42:08;;;;;;;14.02;7.70;;;;;;;;;;5066295;28;20067;-50
2021/10/04 00:44:34;;;;;;;10.40;6.35;;;;;;;;;;5072542;28;20048;-51
2021/10/04 00:47:00;;;;;;;12.45;7.00;;;;;;;;;;5072908;28;20037;-52
2021/10/04 00:49:26;;;;;;;13.90;6.43;;;;;;;;;;5072218;28;20090;-52
2021/10/04 00:51:52;;;;;;;10.13;5.53;;;;;;;;;;5072078;28;20025;-53
2021/10/04 00:54:18;;;;;;;9.85;6.00;;;;;;;;;;5072226;28;20024;-54
2021/10/04 00:56:44;;;;;;;11.07;6.63;;;;;;;;;;5077270;28;20514;-50
2021/10/04 00:59:11;;;;;;;11.57;5.60;;;;;;;;;;5067722;28;20047;-54
2021/10/04 01:01:37;;;;;;;8.65;4.57;;;;;;;;;;5072335;28;20520;-53
2021/10/04 01:04:05;;;;;;;7.63;4.25;;;;;;;;;;5071046;28;20082;-51
2021/10/04 01:06:31;;;;;;;8.15;4.47;;;;;;;;;;5062988;28;20064;-52
2021/10/04 01:08:57;;;;;;;8.68;4.55;;;;;;;;;;5070346;28;20025;-53
2021/10/04 01:11:24;;;;;;;9.65;4.68;;;;;;;;;;5070861;28;20021;-52
2021/10/04 01:13:50;;;;;;;5.03;2.90;;;;;;;;;;5071376;28;20021;-51
2021/10/04 01:16:16;;;;;;;6.60;3.88;;;;;;;;;;5070449;28;20482;-53
2021/10/04 01:18:43;;;;;;;7.35;3.78;;;;;;;;;;5072090;28;20046;-52
2021/10/04 01:21:09;;;;;;;4.15;2.50;;;;;;;;;;5072104;28;20387;-53
2021/10/04 01:23:35;;;;;;;5.90;3.10;;;;;;;;;;5071893;28;20029;-54
2021/10/04 01:26:01;;;;;;;2.95;2.15;;;;;;;;;;5066000;28;20074;-53
2021/10/04 01:28:28;;;;;;;5.20;2.20;;;;;;;;;;5068222;28;20055;-51
2021/10/04 01:30:54;;;;;;;6.03;2.72;;;;;;;;;;5071180;28;20024;-51
2021/10/04 01:33:20;;;;;;;5.05;2.13;;;;;;;;;;5064079;28;20066;-53
2021/10/04 01:35:46;;;;;;;3.63;2.00;;;;;;;;;;5071572;28;20484;-54
2021/10/04 01:38:12;;;;;;;4.07;2.30;;;;;;;;;;5066524;28;20799;-52
2021/10/04 01:40:41;;;;;;;3.40;2.10;;;;;;;;;;5071744;28;20113;-52
2021/10/04 01:43:07;;;;;;;4.05;1.67;;;;;;;;;;5066925;28;20184;-54
2021/10/04 01:45:33;;;;;;;2.92;2.10;;;;;;;;;;5070439;28;20143;-51
2021/10/04 01:47:59;;;;;;;5.25;2.22;;;;;;;;;;5071281;28;20107;-53
2021/10/04 01:50:27;;;;;;;4.60;2.20;;;;;;;;;;5068302;28;20036;-52
2021/10/04 01:52:53;;;;;;;1.52;1.10;;;;;;;;;;5071447;28;20538;-54
2021/10/04 01:55:19;;;;;;;2.55;1.63;;;;;;;;;;5071821;28;20025;-54
2021/10/04 01:57:45;;;;;;;1.60;1.10;;;;;;;;;;5068313;28;20523;-51
2021/10/04 02:00:13;;;;;;;1.80;1.10;;;;;;;;;;5069756;28;20491;-53
2021/10/04 02:02:40;;;;;;;2.08;1.27;;;;;;;;;;5066941;28;20123;-50
2021/10/04 02:05:06;;;;;;;1.30;0.80;;;;;;;;;;5071669;28;20241;-53
2021/10/04 02:07:34;;;;;;;0.85;0.60;;;;;;;;;;5062642;28;20025;-51
2021/10/04 02:10:00;;;;;;;0.80;0.57;;;;;;;;;;5070718;28;20047;-55
2021/10/04 02:12:26;;;;;;;0.50;0.50;;;;;;;;;;5070454;28;20447;-54
2021/10/04 02:14:52;;;;;;;1.30;0.80;;;;;;;;;;5071224;28;20033;-52
2021/10/04 02:17:18;;;;;;;1.70;0.52;;;;;;;;;;5070795;28;20047;-51
2021/10/04 02:19:44;;;;;;;1.20;0.57;;;;;;;;;;5070649;28;20064;-51
2021/10/04 02:22:10;;;;;;;0.80;0.50;;;;;;;;;;5071352;28;20618;-50
2021/10/04 02:24:36;;;;;;;1.40;0.70;;;;;;;;;;5064476;28;20033;-51
2021/10/04 02:27:02;;;;;;;1.60;0.40;;;;;;;;;;5068238;28;20112;-52
2021/10/04 02:29:28;;;;;;;0.70;0.50;;;;;;;;;;5070939;28;20060;-55
2021/10/04 02:31:54;;;;;;;0.60;0.60;;;;;;;;;;5070794;28;20027;-55
2021/10/04 02:34:20;;;;;;;2.03;0.50;;;;;;;;;;5069683;28;20071;-52
2021/10/04 02:36:46;;;;;;;2.45;0.50;;;;;;;;;;5074459;28;20062;-52
2021/10/04 02:39:12;;;;;;;0.80;0.40;;;;;;;;;;5070702;28;20039;-52
2021/10/04 02:41:38;;;;;;;0.70;0.50;;;;;;;;;;5071514;28;20138;-56
2021/10/04 02:44:04;;;;;;;1.92;0.50;;;;;;;;;;5071316;28;20108;-50
2021/10/04 02:46:30;;;;;;;0.50;0.30;;;;;;;;;;5069703;28;20104;-50
2021/10/04 02:48:56;;;;;;;0.82;0.50;;;;;;;;;;5070789;28;20028;-53
2021/10/04 02:51:22;;;;;;;0.57;0.38;;;;;;;;;;5073797;28;20388;-51
2021/10/04 02:53:48;;;;;;;1.75;0.55;;;;;;;;;;5074231;28;20025;-53
2021/10/04 02:56:14;;;;;;;0.90;0.40;;;;;;;;;;5079913;28;20032;-54
2021/10/04 02:58:40;;;;;;;0.63;0.38;;;;;;;;;;5070047;28;20032;-51
2021/10/04 03:01:06;;;;;;;0.85;0.38;;;;;;;;;;5072799;28;20150;-50
2021/10/04 03:03:32;;;;;;;0.35;0.35;;;;;;;;;;5072901;28;20031;-55
2021/10/04 03:05:58;;;;;;;0.77;0.50;;;;;;;;;;5073944;28;20100;-52
2021/10/04 03:08:24;;;;;;;0.50;0.43;;;;;;;;;;5072575;28;20040;-55
2021/10/04 03:10:50;;;;;;;0.45;0.30;;;;;;;;;;5074192;28;20074;-52
2021/10/04 03:13:16;;;;;;;2.25;0.30;;;;;;;;;;5074266;28;20439;-53
2021/10/04 03:15:43;;;;;;;1.67;0.40;;;;;;;;;;5074222;28;20491;-54
2021/10/04 03:18:10;;;;;;;0.25;0.20;;;;;;;;;;5071877;28;20049;-52
2021/10/04 03:20:36;;;;;;;0.82;0.40;;;;;;;;;;5074388;28;20104;-55
2021/10/04 03:23:02;;;;;;;0.60;0.35;;;;;;;;;;5073843;28;20032;-53
2021/10/04 03:25:28;;;;;;;0.40;0.30;;;;;;;;;;5075134;28;20094;-51
2021/10/04 03:27:54;;;;;;;0.38;0.28;;;;;;;;;;5069757;28;20482;-54
2021/10/04 03:30:20;;;;;;;0.50;0.22;;;;;;;;;;5072872;28;20071;-54
2021/10/04 03:32:46;;;;;;;0.80;0.32;;;;;;;;;;5072752;28;20078;-52
2021/10/04 03:35:13;;;;;;;0.35;0.28;;;;;;;;;;5072258;28;20036;-54
2021/10/04 03:37:39;;;;;;;0.28;0.28;;;;;;;;;;5073404;28;20025;-53
2021/10/04 03:40:05;;;;;;;1.90;0.20;;;;;;;;;;5074274;28;20032;-52
2021/10/04 03:42:31;;;;;;;1.20;0.28;;;;;;;;;;5074049;28;20067;-55
2021/10/04 03:44:57;;;;;;;0.28;0.20;;;;;;;;;;5067613;28;20056;-54
2021/10/04 03:47:23;;;;;;;0.60;0.40;;;;;;;;;;5072485;28;20039;-53
2021/10/04 03:49:49;;;;;;;0.65;0.28;;;;;;;;;;5071397;28;20067;-52
2021/10/04 03:52:15;;;;;;;0.57;0.22;;;;;;;;;;5073543;28;20029;-51
2021/10/04 03:54:41;;;;;;;0.35;0.20;;;;;;;;;;5073653;28;20070;-52
2021/10/04 03:57:07;;;;;;;0.50;0.22;;;;;;;;;;5073763;28;20107;-51
2021/10/04 03:59:33;;;;;;;0.22;0.20;;;;;;;;;;5071188;28;20123;-50
2021/10/04 04:01:59;;;;;;;0.22;0.22;;;;;;;;;;5072915;28;20100;-50
2021/10/04 04:04:25;;;;;;;0.30;0.30;;;;;;;;;;5065019;28;20107;-50
2021/10/04 04:06:51;;;;;;;0.82;0.30;;;;;;;;;;5066329;28;20040;-52
2021/10/04 04:09:17;;;;;;;0.85;0.20;;;;;;;;;;5065036;28;20028;-56
2021/10/04 04:11:43;;;;;;;0.30;0.20;;;;;;;;;;5062416;28;20043;-52
2021/10/04 04:14:09;;;;;;;0.30;0.20;;;;;;;;;;5069482;28;20094;-53
2021/10/04 04:16:35;;;;;;;0.82;0.50;;;;;;;;;;5065624;28;20032;-53
2021/10/04 04:19:01;;;;;;;0.17;0.15;;;;;;;;;;5064323;28;20056;-54
2021/10/04 04:21:28;;;;;;;0.15;0.15;;;;;;;;;;5068677;28;20086;-55
2021/10/04 04:23:53;;;;;;;0.20;0.20;;;;;;;;;;5072430;28;20036;-53
2021/10/04 04:26:19;;;;;;;1.65;0.25;;;;;;;;;;5065970;28;20485;-53
2021/10/04 04:28:45;;;;;;;0.40;0.28;;;;;;;;;;5072237;28;20103;-51
2021/10/04 04:31:11;;;;;;;1.02;0.28;;;;;;;;;;5065689;28;20033;-52
2021/10/04 04:33:38;;;;;;;0.30;0.30;;;;;;;;;;5064554;28;20044;-52
2021/10/04 04:36:05;;;;;;;0.30;0.30;;;;;;;;;;5070654;28;20051;-54
2021/10/04 04:38:31;;;;;;;0.32;0.30;;;;;;;;;;5067971;28;20032;-50
2021/10/04 04:40:57;;;;;;;1.58;0.68;;;;;;;;;;5068322;28;20121;-52
2021/10/04 04:43:23;;;;;;;0.20;0.20;;;;;;;;;;5068928;28;20140;-54
2021/10/04 04:45:49;;;;;;;0.52;0.40;;;;;;;;;;5060652;28;20033;-55
2021/10/04 04:48:15;;;;;;;0.43;0.20;;;;;;;;;;5073183;28;20655;-56
2021/10/04 04:50:41;;;;;;;0.28;0.20;;;;;;;;;;5071357;28;20373;-53
2021/10/04 04:53:07;;;;;;;0.30;0.28;;;;;;;;;;5068929;28;20025;-51
2021/10/04 04:55:33;;;;;;;0.20;0.20;;;;;;;;;;5066683;28;20036;-53
2021/10/04 04:57:59;;;;;;;0.20;0.20;;;;;;;;;;5068741;28;20509;-51
2021/10/04 05:00:25;;;;;;;0.15;0.15;;;;;;;;;;5069872;28;20046;-51
2021/10/04 05:02:51;;;;;;;0.20;0.20;;;;;;;;;;5078340;28;20085;-53
2021/10/04 05:05:18;;;;;;;0.20;0.20;;;;;;;;;;5065659;28;20464;-55
2021/10/04 05:07:44;;;;;;;0.32;0.30;;;;;;;;;;5071196;28;20032;-53
2021/10/04 05:10:11;;;;;;;0.45;0.30;;;;;;;;;;5073670;28;20064;-54
2021/10/04 05:12:37;;;;;;;0.17;0.17;;;;;;;;;;5070488;28;20042;-53
2021/10/04 05:15:04;;;;;;;0.52;0.40;;;;;;;;;;5061906;28;20095;-52
2021/10/04 05:17:30;;;;;;;0.55;0.30;;;;;;;;;;5071793;28;20028;-55
2021/10/04 05:19:56;;;;;;;0.38;0.28;;;;;;;;;;5061292;28;20406;-56
2021/10/04 05:22:22;;;;;;;0.43;0.22;;;;;;;;;;5065863;28;20040;-56
2021/10/04 05:24:47;;;;;;;0.15;0.15;;;;;;;;;;5067589;28;20124;-53
2021/10/04 05:27:13;;;;;;;0.35;0.20;;;;;;;;;;5071130;28;20037;-52
2021/10/04 05:29:39;;;;;;;0.20;0.20;;;;;;;;;;5067505;28;20384;-53
2021/10/04 05:32:07;;;;;;;0.25;0.20;;;;;;;;;;5068978;28;20032;-51
2021/10/04 05:34:33;;;;;;;0.70;0.10;;;;;;;;;;5071243;28;20033;-53
2021/10/04 05:36:59;;;;;;;2.22;0.25;;;;;;;;;;5069417;28;20107;-54
2021/10/04 05:39:25;;;;;;;0.20;0.20;;;;;;;;;;5063800;28;20086;-55
2021/10/04 05:41:50;;;;;;;0.20;0.20;;;;;;;;;;5070700;28;20043;-53
2021/10/04 05:44:16;;;;;;;0.65;0.20;;;;;;;;;;5070169;28;20039;-56
2021/10/04 05:46:42;;;;;;;0.10;0.10;;;;;;;;;;5067563;28;20048;-53
2021/10/04 05:49:08;;;;;;;0.30;0.20;;;;;;;;;;5072597;28;20032;-55
2021/10/04 05:51:34;;;;;;;0.77;0.55;;;;;;;;;;5071790;28;20409;-56
2021/10/04 05:54:00;;;;;;;0.20;0.20;;;;;;;;;;5069997;28;20025;-52
2021/10/04 05:56:26;;;;;;;0.38;0.38;;;;;;;;;;5071714;28;20021;-56
2021/10/04 05:58:52;;;;;;;0.52;0.30;;;;;;;;;;5071354;28;20023;-55
2021/10/04 06:01:18;;;;;;;0.65;0.40;;;;;;;;;;5075811;28;20025;-59
2021/10/04 06:03:44;;;;;;;0.40;0.38;;;;;;;;;;5072544;28;20062;-59
2021/10/04 06:06:10;;;;;;;0.35;0.22;;;;;;;;;;5072337;28;20071;-58
2021/10/04 06:08:36;;;;;;;0.25;0.20;;;;;;;;;;5071706;28;20028;-55
2021/10/04 06:11:02;;;;;;;0.40;0.28;;;;;;;;;;5068324;28;20023;-56
2021/10/04 06:13:28;;;;;;;0.30;0.22;;;;;;;;;;5065293;28;20024;-55
2021/10/04 06:15:54;;;;;;;0.40;0.15;;;;;;;;;;5070532;28;20032;-54
2021/10/04 06:18:20;;;;;;;0.70;0.35;;;;;;;;;;5071580;28;20041;-58
2021/10/04 06:20:46;;;;;;;0.35;0.20;;;;;;;;;;5067447;28;20036;-58
2021/10/04 06:23:12;;;;;;;0.30;0.20;;;;;;;;;;5070676;28;20024;-58
2021/10/04 06:25:38;;;;;;;0.20;0.20;;;;;;;;;;5067835;28;20035;-56
2021/10/04 06:28:04;;;;;;;0.47;0.20;;;;;;;;;;5070465;28;20039;-58
2021/10/04 06:30:31;;;;;;;0.63;0.20;;;;;;;;;;5075955;28;20081;-56
2021/10/04 06:32:56;;;;;;;0.20;0.20;;;;;;;;;;5068359;28;20032;-55
2021/10/04 06:35:22;;;;;;;0.82;0.40;;;;;;;;;;5071746;28;20029;-56
2021/10/04 06:37:48;;;;;;;0.13;0.13;;;;;;;;;;5070799;28;20092;-57
2021/10/04 06:40:16;;;;;;;0.20;0.20;;;;;;;;;;5075226;28;20044;-57
2021/10/04 06:42:42;;;;;;;0.55;0.30;;;;;;;;;;5075058;28;20461;-57
2021/10/04 06:45:08;;;;;;;0.10;0.10;;;;;;;;;;5075425;28;20107;-56
2021/10/04 06:47:34;;;;;;;0.20;0.20;;;;;;;;;;5070900;28;20413;-56
2021/10/04 06:50:01;;;;;;;0.32;0.22;;;;;;;;;;5072228;28;20039;-56
2021/10/04 06:52:27;;;;;;;0.38;0.20;;;;;;;;;;5075479;28;20492;-57
2021/10/04 06:54:53;;;;;;;0.20;0.20;;;;;;;;;;5068041;28;20081;-55
2021/10/04 06:57:19;;;;;;;1.30;0.30;;;;;;;;;;5070474;28;20096;-57
2021/10/04 06:59:45;;;;;;;2.33;0.20;;;;;;;;;;5070865;28;20525;-56
2021/10/04 07:02:11;;;;;;;0.28;0.20;;;;;;;;;;5081936;28;20036;-58
2021/10/04 07:04:36;;;;;;;0.30;0.20;;;;;;;;;;5070607;28;20029;-54
2021/10/04 07:07:03;;;;;;;0.30;0.17;;;;;;;;;;5074633;28;20069;-55
2021/10/04 07:09:29;;;;;;;0.30;0.20;;;;;;;;;;5063899;28;20036;-57
2021/10/04 07:11:55;;;;;;;0.95;0.20;;;;;;;;;;5074329;28;20024;-55
2021/10/04 07:14:21;;;;;;;0.60;0.40;;;;;;;;;;5071474;28;20097;-56
2021/10/04 07:16:47;;;;;;;0.40;0.30;;;;;;;;;;5073113;28;20016;-57
2021/10/04 07:19:13;;;;;;;0.35;0.20;;;;;;;;;;5072236;28;20381;-56
2021/10/04 07:21:39;;;;;;;0.40;0.28;;;;;;;;;;5068953;28;20424;-57
2021/10/04 07:24:05;;;;;;;0.20;0.20;;;;;;;;;;5066408;28;20040;-55
2021/10/04 07:26:31;;;;;;;1.10;0.10;;;;;;;;;;5066519;28;20040;-54
2021/10/04 07:28:59;;;;;;;0.40;0.32;;;;;;;;;;5072723;28;20104;-56
2021/10/04 07:31:25;;;;;;;0.30;0.20;;;;;;;;;;5065174;28;20021;-56
2021/10/04 07:33:51;;;;;;;0.38;0.20;;;;;;;;;;5068684;28;20024;-58
2021/10/04 07:36:17;;;;;;;0.40;0.30;;;;;;;;;;5068959;28;20031;-54
2021/10/04 07:38:43;;;;;;;0.77;0.50;;;;;;;;;;5072765;28;20020;-57
2021/10/04 07:41:09;;;;;;;0.22;0.13;;;;;;;;;;5068436;28;20024;-56
2021/10/04 07:43:35;;;;;;;0.30;0.28;;;;;;;;;;5072784;28;20078;-56
2021/10/04 07:46:03;;;;;;;0.70;0.17;;;;;;;;;;5067372;28;20465;-57
2021/10/04 07:48:29;;;;;;;0.28;0.28;;;;;;;;;;5064163;28;20520;-56
2021/10/04 07:50:56;;;;;;;0.20;0.20;;;;;;;;;;5069910;28;20127;-55
2021/10/04 07:53:22;;;;;;;0.15;0.15;;;;;;;;;;5071261;28;20020;-58
2021/10/04 07:55:48;;;;;;;2.28;0.30;;;;;;;;;;5073107;28;20099;-57
2021/10/04 07:58:14;;;;;;;0.63;0.30;;;;;;;;;;5068574;28;20029;-57
2021/10/04 08:00:40;;;;;;;0.30;0.28;;;;;;;;;;5067044;28;20108;-59
2021/10/04 08:03:06;;;;;;;0.28;0.10;;;;;;;;;;5070637;28;20361;-56
2021/10/04 08:05:32;;;;;;;0.30;0.20;;;;;;;;;;5072832;28;20111;-55
2021/10/04 08:07:58;;;;;;;1.60;0.20;;;;;;;;;;5071423;28;20020;-59
2021/10/04 08:10:24;;;;;;;0.25;0.25;;;;;;;;;;5066142;28;20056;-56
2021/10/04 08:12:51;;;;;;;0.30;0.30;;;;;;;;;;5072738;28;20469;-57
2021/10/04 08:15:18;;;;;;;0.63;0.40;;;;;;;;;;5070657;28;20028;-58
2021/10/04 08:17:44;;;;;;;0.10;0.10;;;;;;;;;;5033505;28;980894;-56
2021/10/04 08:20:10;;;;;;;0.20;0.20;;;;;;;;;;5073677;28;20036;-58
2021/10/04 08:22:37;;;;;;;1.60;0.32;;;;;;;;;;5068638;28;20226;-56
2021/10/04 08:25:04;;;;;;;0.20;0.17;;;;;;;;;;5065774;28;20489;-55
2021/10/04 08:27:30;;;;;;;0.65;0.22;;;;;;;;;;5067125;28;20428;-55
2021/10/04 08:29:56;;;;;;;1.42;0.20;;;;;;;;;;5062527;28;20036;-56
2021/10/04 08:32:21;;;;;;;0.70;0.30;;;;;;;;;;5065962;28;20583;-58
2021/10/04 08:34:48;;;;;;;0.93;0.30;;;;;;;;;;5072992;28;20021;-57
2021/10/04 08:37:14;;;;;;;0.50;0.30;;;;;;;;;;5064928;28;20486;-55
2021/10/04 08:39:40;;;;;;;0.10;0.10;;;;;;;;;;5064170;28;20467;-57
2021/10/04 08:42:06;;;;;;;0.63;0.30;;;;;;;;;;5069774;28;20028;-57
2021/10/04 08:44:32;;;;;;;0.75;0.25;;;;;;;;;;5068330;28;20028;-54
2021/10/04 08:46:59;;;;;;;0.52;0.20;;;;;;;;;;5065839;28;20039;-51
2021/10/04 08:49:26;;;;;;;0.10;0.10;;;;;;;;;;5068016;28;20087;-56
2021/10/04 08:51:52;;;;;;;0.60;0.30;;;;;;;;;;5073361;28;20016;-54
2021/10/04 08:54:24;;;;;;;0.55;0.40;;;;;;;;;;5070938;28;20032;-57
2021/10/04 08:56:51;;;;;;;0.70;0.30;;;;;;;;;;5069787;28;20036;-55
2021/10/04 08:59:17;;;;;;;0.38;0.20;;;;;;;;;;5073609;28;20115;-55
2021/10/04 09:01:43;;;;;;;0.93;0.30;;;;;;;;;;5071749;28;20413;-57
2021/10/04 09:04:09;;;;;;;0.80;0.30;;;;;;;;;;5073812;28;20345;-56
2021/10/04 09:06:37;;;;;;;0.35;0.30;;;;;;;;;;5073214;28;20105;-55
2021/10/04 09:09:09;;;;;;;0.57;0.30;;;;;;;;;;5072033;28;20060;-57
2021/10/04 09:11:37;;;;;;;0.32;0.20;;;;;;;;;;5064808;28;20552;-57
2021/10/04 09:14:05;;;;;;;1.00;0.55;;;;;;;;;;5063988;28;20034;-55
2021/10/04 09:16:49;;;;;;;0.60;0.30;;;;;;;;;;5073442;28;20500;-55
2021/10/04 09:19:18;;;;;;;2.67;0.38;;;;;;;;;;5071204;28;20119;-55
2021/10/04 09:22:01;;;;;;;0.35;0.20;;;;;;;;;;5072032;28;20094;-55
2021/10/04 09:24:27;;;;;;;0.55;0.20;;;;;;;;;;5071729;28;20077;-55
2021/10/04 09:26:53;;;;;;;0.40;0.30;;;;;;;;;;5062054;28;20063;-55
2021/10/04 09:29:20;;;;;;;0.30;0.30;;;;;;;;;;5069671;28;20075;-56
2021/10/04 09:31:47;;;;;;;1.80;0.55;;;;;;;;;;5069308;28;20025;-57
2021/10/04 09:34:26;;;;;;;0.40;0.25;;;;;;;;;;5072583;28;20415;-54
2021/10/04 09:36:53;;;;;;;0.17;0.10;;;;;;;;;;5070521;28;20464;-53
2021/10/04 09:39:21;;;;;;;0.40;0.28;;;;;;;;;;5076876;28;20114;-57
2021/10/04 09:41:57;;;;;;;0.20;0.20;;;;;;;;;;5073145;28;20491;-57
2021/10/04 09:44:23;;;;;;;0.82;0.40;;;;;;;;;;5067417;28;20037;-53
2021/10/04 09:46:49;;;;;;;1.10;0.30;;;;;;;;;;5071953;28;20052;-56
2021/10/04 09:49:16;;;;;;;1.55;0.40;;;;;;;;;;5072297;28;20024;-56
2021/10/04 09:51:51;;;;;;;2.55;0.50;;;;;;;;;;5072693;28;20027;-56
2021/10/04 09:54:17;;;;;;;1.80;0.50;;;;;;;;;;5071155;28;20020;-53
2021/10/04 09:56:44;;;;;;;2.20;0.25;;;;;;;;;;5072663;28;20081;-56
2021/10/04 09:59:10;;;;;;;0.40;0.22;;;;;;;;;;5071999;28;20031;-56
2021/10/04 10:01:37;;;;;;;2.17;0.52;;;;;;;;;;5075008;28;20028;-54
2021/10/04 10:04:03;;;;;;;0.50;0.38;;;;;;;;;;5074468;28;20103;-53
2021/10/04 10:06:33;;;;;;;1.02;0.38;;;;;;;;;;5068498;28;20027;-56
2021/10/04 10:08:59;;;;;;;0.38;0.22;;;;;;;;;;5068518;28;20050;-55
2021/10/04 10:11:28;;;;;;;0.40;0.40;;;;;;;;;;5069070;28;20392;-53
2021/10/04 10:13:55;;;;;;;0.82;0.60;;;;;;;;;;5072075;28;20036;-55
2021/10/04 10:16:23;;;;;;;0.90;0.40;;;;;;;;;;5071742;28;20131;-53
2021/10/04 10:18:53;;;;;;;0.88;0.40;;;;;;;;;;5066344;28;20128;-57
2021/10/04 10:21:19;;;;;;;4.35;1.17;;;;;;;;;;5070812;28;20044;-57
2021/10/04 10:23:59;;;;;;;1.00;0.40;;;;;;;;;;5063919;28;20028;-57
2021/10/04 10:26:34;;;;;;;1.20;0.40;;;;;;;;;;5066909;28;20036;-56
2021/10/04 10:29:09;;;;;;;2.65;0.73;;;;;;;;;;5071837;28;20033;-57
2021/10/04 10:31:56;;;;;;;0.88;0.40;;;;;;;;;;5072493;28;20028;-55
2021/10/04 10:34:25;;;;;;;0.63;0.50;;;;;;;;;;5066451;28;20048;-53
2021/10/04 10:36:59;;;;;;;1.13;0.52;;;;;;;;;;5064284;28;20542;-56
2021/10/04 10:39:35;;;;;;;2.92;1.20;;;;;;;;;;5068449;28;20814;-57
2021/10/04 10:42:20;;;;;;;1.25;0.63;;;;;;;;;;5072502;28;20432;-55
2021/10/04 10:44:58;;;;;;;1.75;0.80;;;;;;;;;;5060350;28;20020;-57
2021/10/04 10:47:42;;;;;;;1.30;0.70;;;;;;;;;;5070111;28;20043;-56
2021/10/04 10:50:24;;;;;;;2.65;0.90;;;;;;;;;;5069016;28;20910;-52
2021/10/04 10:52:59;;;;;;;2.47;0.55;;;;;;;;;;5063398;28;20017;-57
2021/10/04 10:55:25;;;;;;;1.55;0.88;;;;;;;;;;5069577;28;20063;-55
2021/10/04 10:57:51;;;;;;;2.67;1.20;;;;;;;;;;5066697;28;20020;-56
2021/10/04 11:00:18;;;;;;;3.72;1.67;;;;;;;;;;5061447;28;20036;-54
2021/10/04 11:02:47;;;;;;;3.60;1.85;;;;;;;;;;5071646;28;20028;-54
2021/10/04 11:05:32;;;;;;;4.20;1.92;;;;;;;;;;5065020;28;20035;-57
2021/10/04 11:07:58;;;;;;;5.53;1.75;;;;;;;;;;5066903;28;20108;-54
2021/10/04 11:10:24;;;;;;;5.03;2.03;;;;;;;;;;5065137;28;20124;-52
2021/10/04 11:13:09;;;;;;;5.03;1.50;;;;;;;;;;5075101;28;20024;-56
2021/10/04 11:15:36;;;;;;;4.25;1.10;;;;;;;;;;5070983;28;20033;-54
2021/10/04 11:18:02;;;;;;;4.45;0.90;;;;;;;;;;5074771;28;20133;-54
2021/10/04 11:20:28;;;;;;;4.95;1.13;;;;;;;;;;5075001;28;20103;-54
2021/10/04 11:23:13;;;;;;;3.47;1.05;;;;;;;;;;5075171;28;20079;-56
2021/10/04 11:25:49;;;;;;;1.63;0.85;;;;;;;;;;5066551;28;20036;-53
2021/10/04 11:28:16;;;;;;;1.85;0.80;;;;;;;;;;5068458;28;20112;-56
2021/10/04 11:30:59;;;;;;;1.60;0.75;;;;;;;;;;5073762;28;20110;-55
2021/10/04 11:33:26;;;;;;;1.83;0.88;;;;;;;;;;5070770;28;20112;-54
2021/10/04 11:36:08;;;;;;;2.08;0.80;;;;;;;;;;5071077;28;20100;-55
2021/10/04 11:38:38;;;;;;;1.63;0.88;;;;;;;;;;5072033;28;20097;-57
2021/10/04 11:41:05;;;;;;;1.67;0.90;;;;;;;;;;5070253;28;20028;-55
2021/10/04 11:43:36;;;;;;;2.08;0.73;;;;;;;;;;5072534;28;20103;-57
2021/10/04 11:46:14;;;;;;;1.92;0.82;;;;;;;;;;5066135;28;20028;-56
2021/10/04 11:48:40;;;;;;;3.28;0.90;;;;;;;;;;5077985;28;20050;-55
2021/10/04 11:51:08;;;;;;;2.63;0.85;;;;;;;;;;5070544;28;20449;-53
2021/10/04 11:53:37;;;;;;;2.13;0.77;;;;;;;;;;5067388;28;20023;-54
2021/10/04 11:56:04;;;;;;;2.75;1.00;;;;;;;;;;5070448;28;20031;-56
2021/10/04 11:58:30;;;;;;;1.17;0.65;;;;;;;;;;5070824;28;20091;-55
2021/10/04 12:00:56;;;;;;;2.25;0.90;;;;;;;;;;5068134;28;20068;-56
2021/10/04 12:03:25;;;;;;;1.85;0.68;;;;;;;;;;5072599;28;20476;-57
2021/10/04 12:05:52;;;;;;;2.25;0.77;;;;;;;;;;5074078;28;20040;-56
2021/10/04 12:08:19;;;;;;;2.65;1.00;;;;;;;;;;5064496;28;20031;-57
2021/10/04 12:10:49;;;;;;;2.03;0.82;;;;;;;;;;5068672;28;20044;-57
2021/10/04 12:13:22;;;;;;;1.70;0.73;;;;;;;;;;5071615;28;20021;-56
2021/10/04 12:15:49;;;;;;;2.13;1.13;;;;;;;;;;5066981;28;20025;-53
2021/10/04 12:18:16;;;;;;;1.75;0.70;;;;;;;;;;5068678;28;20115;-56
2021/10/04 12:20:43;;;;;;;2.97;0.80;;;;;;;;;;5070671;28;20029;-56
2021/10/04 12:23:13;;;;;;;1.77;0.60;;;;;;;;;;5065878;28;20443;-57
2021/10/04 12:25:39;;;;;;;1.38;0.55;;;;;;;;;;5069059;28;20112;-54
2021/10/04 12:28:07;;;;;;;2.58;0.73;;;;;;;;;;5072162;28;20047;-57
2021/10/04 12:30:42;;;;;;;2.63;0.75;;;;;;;;;;5063254;28;20064;-54
2021/10/04 12:33:08;;;;;;;2.10;0.60;;;;;;;;;;5074963;28;20016;-55
2021/10/04 12:35:34;;;;;;;2.35;1.08;;;;;;;;;;5078261;28;20032;-55
2021/10/04 12:38:07;;;;;;;1.73;0.90;;;;;;;;;;5069441;28;20035;-56
2021/10/04 12:40:44;;;;;;;3.37;1.00;;;;;;;;;;5065246;28;20381;-56
2021/10/04 12:43:14;;;;;;;4.35;0.80;;;;;;;;;;5072535;28;20029;-55
2021/10/04 12:45:51;;;;;;;4.70;1.42;;;;;;;;;;5067028;28;20063;-54
2021/10/04 12:48:18;;;;;;;2.55;1.08;;;;;;;;;;5070116;28;20071;-54
2021/10/04 12:50:44;;;;;;;2.95;1.15;;;;;;;;;;5067759;28;20472;-57
2021/10/04 12:53:14;;;;;;;2.78;1.30;;;;;;;;;;5068430;28;20468;-57
2021/10/04 12:55:59;;;;;;;4.10;1.30;;;;;;;;;;5072018;28;20029;-51
2021/10/04 12:58:27;;;;;;;4.13;1.30;;;;;;;;;;5067871;28;20033;-55
2021/10/04 13:00:53;;;;;;;2.38;1.20;;;;;;;;;;5073358;28;20040;-57
2021/10/04 13:03:20;;;;;;;4.18;1.35;;;;;;;;;;5068188;28;20021;-56
2021/10/04 13:05:49;;;;;;;2.75;1.40;;;;;;;;;;5070076;28;20059;-57
2021/10/04 13:08:15;;;;;;;2.15;1.40;;;;;;;;;;5063072;28;20059;-57
2021/10/04 13:10:41;;;;;;;1.83;1.10;;;;;;;;;;5071131;28;20032;-57
2021/10/04 13:13:07;;;;;;;1.88;1.42;;;;;;;;;;5070959;28;20090;-56
2021/10/04 13:15:34;;;;;;;2.30;0.95;;;;;;;;;;5073219;28;20099;-54
2021/10/04 13:18:01;;;;;;;2.22;1.15;;;;;;;;;;5073482;28;20089;-54
2021/10/04 13:20:27;;;;;;;1.73;1.10;;;;;;;;;;5064355;28;20028;-53
2021/10/04 13:22:53;;;;;;;2.33;1.33;;;;;;;;;;5065825;28;20043;-57
2021/10/04 13:25:22;;;;;;;1.63;1.10;;;;;;;;;;5059906;28;20028;-54
2021/10/04 13:27:48;;;;;;;4.22;1.52;;;;;;;;;;5072586;28;20107;-54
2021/10/04 13:30:14;;;;;;;3.35;1.38;;;;;;;;;;5062455;28;20044;-55
2021/10/04 13:32:40;;;;;;;2.58;1.10;;;;;;;;;;5066945;28;20024;-56
2021/10/04 13:35:07;;;;;;;2.70;1.48;;;;;;;;;;5063822;28;20024;-56
2021/10/04 13:37:33;;;;;;;3.05;1.38;;;;;;;;;;5065983;28;20025;-55
2021/10/04 13:39:59;;;;;;;4.93;1.40;;;;;;;;;;5067537;28;20036;-57
2021/10/04 13:42:25;;;;;;;1.52;0.80;;;;;;;;;;5062805;28;20085;-56
2021/10/04 13:44:51;;;;;;;2.25;1.25;;;;;;;;;;5069466;28;20028;-54
2021/10/04 13:47:17;;;;;;;3.67;0.93;;;;;;;;;;5067353;28;20052;-56
2021/10/04 13:49:43;;;;;;;1.50;1.10;;;;;;;;;;5071664;28;20067;-55
2021/10/04 13:52:09;;;;;;;2.00;0.82;;;;;;;;;;5070119;28;20111;-54
2021/10/04 13:54:35;;;;;;;1.65;0.93;;;;;;;;;;5070427;28;20073;-56
2021/10/04 13:57:01;;;;;;;1.38;0.90;;;;;;;;;;5066514;28;20017;-55
2021/10/04 13:59:27;;;;;;;1.80;0.90;;;;;;;;;;5073898;28;20463;-57
2021/10/04 14:01:53;;;;;;;4.20;1.45;;;;;;;;;;5074976;28;20024;-55
2021/10/04 14:04:19;;;;;;;2.92;1.48;;;;;;;;;;5072553;28;20029;-57
2021/10/04 14:06:45;;;;;;;1.98;1.30;;;;;;;;;;5068332;28;20021;-57
2021/10/04 14:09:11;;;;;;;3.85;1.60;;;;;;;;;;5065167;28;20032;-56
2021/10/04 14:11:37;;;;;;;2.92;1.00;;;;;;;;;;5064054;28;20094;-57
2021/10/04 14:14:03;;;;;;;1.63;0.98;;;;;;;;;;5063137;28;20056;-54
2021/10/04 14:16:29;;;;;;;3.53;1.02;;;;;;;;;;5072123;28;20056;-55
2021/10/04 14:18:55;;;;;;;1.63;1.05;;;;;;;;;;5071889;28;20063;-56
2021/10/04 14:21:23;;;;;;;1.90;0.85;;;;;;;;;;5071398;28;20036;-53
2021/10/04 14:23:49;;;;;;;1.50;1.05;;;;;;;;;;5077555;28;20032;-54
2021/10/04 14:26:15;;;;;;;6.53;1.65;;;;;;;;;;5062297;28;20116;-54
2021/10/04 14:28:41;;;;;;;2.45;1.10;;;;;;;;;;5069606;28;20029;-55
2021/10/04 14:31:07;;;;;;;1.95;1.17;;;;;;;;;;5073379;28;20090;-53
2021/10/04 14:33:34;;;;;;;2.35;1.20;;;;;;;;;;5071981;28;20218;-56
2021/10/04 14:36:00;;;;;;;1.92;1.20;;;;;;;;;;5068395;28;20341;-54
2021/10/04 14:38:26;;;;;;;1.23;0.80;;;;;;;;;;5072259;28;20031;-55
2021/10/04 14:40:52;;;;;;;4.30;1.30;;;;;;;;;;5060559;28;20032;-54
2021/10/04 14:43:18;;;;;;;3.08;1.60;;;;;;;;;;5074027;28;20028;-54